createdAt,value
2018-08-25T00:01:28.170Z,99.90
2018-08-25T00:03:56.659Z,99.90
2018-08-25T00:06:25.103Z,99.90
2018-08-25T00:08:53.559Z,99.90
2018-08-25T00:11:22.003Z,99.90
2018-08-25T00:13:50.476Z,99.90
2018-08-25T00:16:18.911Z,99.90
2018-08-25T00:18:47.374Z,99.90
2018-08-25T00:21:15.843Z,99.90
2018-08-25T00:23:44.299Z,99.90
2018-08-25T00:26:12.763Z,99.90
2018-08-25T00:28:41.220Z,99.90
2018-08-25T00:31:15.007Z,99.90
2018-08-25T00:33:43.467Z,99.90
2018-08-25T00:36:11.895Z,99.90
2018-08-25T00:38:40.322Z,99.90
2018-08-25T00:41:08.779Z,99.90
2018-08-25T00:43:37.250Z,99.90
2018-08-25T00:46:05.776Z,99.90
2018-08-25T00:48:34.336Z,99.90
2018-08-25T00:51:03.103Z,99.90
2018-08-25T00:53:31.563Z,99.90
2018-08-25T00:56:00.035Z,99.90
2018-08-25T00:58:28.471Z,99.90
2018-08-25T01:00:56.940Z,99.90
2018-08-25T01:03:25.396Z,99.90
2018-08-25T01:05:53.926Z,99.90
2018-08-25T01:08:22.368Z,99.90
2018-08-25T01:10:50.815Z,99.90
2018-08-25T01:13:19.295Z,99.90
2018-08-25T01:15:47.825Z,99.90
2018-08-25T01:18:16.219Z,99.90
2018-08-25T01:20:44.731Z,99.90
2018-08-25T01:23:13.187Z,99.90
2018-08-25T01:25:41.647Z,99.90
2018-08-25T01:28:10.095Z,99.90
2018-08-25T01:30:38.535Z,99.90
2018-08-25T01:33:07.042Z,99.90
2018-08-25T01:35:35.481Z,99.90
2018-08-25T01:38:03.968Z,99.90
2018-08-25T01:40:32.431Z,99.90
2018-08-25T01:43:00.943Z,99.90
2018-08-25T01:45:29.383Z,99.90
2018-08-25T01:47:57.831Z,99.90
2018-08-25T01:50:26.267Z,99.90
2018-08-25T01:52:54.723Z,99.90
2018-08-25T01:55:23.206Z,99.90
2018-08-25T01:57:51.669Z,99.90
2018-08-25T02:00:20.094Z,99.90
2018-08-25T02:02:48.584Z,99.90
2018-08-25T02:05:17.015Z,99.90
2018-08-25T02:07:45.479Z,99.90
2018-08-25T02:10:13.924Z,99.90
2018-08-25T02:12:42.382Z,99.90
2018-08-25T02:15:10.816Z,99.90
2018-08-25T02:17:39.276Z,99.90
2018-08-25T02:20:07.738Z,99.90
2018-08-25T02:22:36.172Z,99.90
2018-08-25T02:25:04.639Z,99.90
2018-08-25T02:27:33.067Z,99.90
2018-08-25T02:30:01.520Z,99.90
2018-08-25T02:32:29.959Z,99.90
2018-08-25T02:34:58.455Z,99.90
2018-08-25T02:37:26.895Z,99.90
2018-08-25T02:39:55.380Z,99.90
2018-08-25T02:42:23.831Z,99.90
2018-08-25T02:44:52.307Z,99.90
2018-08-25T02:47:20.744Z,99.90
2018-08-25T02:49:49.203Z,99.90
2018-08-25T02:52:17.695Z,99.90
2018-08-25T02:54:46.153Z,99.90
2018-08-25T02:57:14.578Z,99.90
2018-08-25T02:59:43.017Z,99.90
2018-08-25T03:02:11.458Z,99.90
2018-08-25T03:04:39.894Z,99.90
2018-08-25T03:07:08.354Z,99.90
2018-08-25T03:09:36.782Z,99.90
2018-08-25T03:12:05.235Z,99.90
2018-08-25T03:14:33.663Z,99.90
2018-08-25T03:17:02.121Z,99.90
2018-08-25T03:19:30.555Z,99.90
2018-08-25T03:21:58.986Z,99.90
2018-08-25T03:24:27.486Z,99.90
2018-08-25T03:26:55.992Z,99.90
2018-08-25T03:29:24.435Z,99.90
2018-08-25T03:31:52.885Z,99.90
2018-08-25T03:34:21.351Z,99.90
2018-08-25T03:36:49.780Z,99.90
2018-08-25T03:39:18.251Z,99.90
2018-08-25T03:41:46.683Z,99.90
2018-08-25T03:44:15.172Z,99.90
2018-08-25T03:46:43.603Z,99.90
2018-08-25T03:49:12.031Z,99.90
2018-08-25T03:51:40.491Z,99.90
2018-08-25T03:54:08.922Z,99.90
2018-08-25T03:56:37.384Z,99.90
2018-08-25T03:59:05.924Z,99.90
2018-08-25T04:01:34.400Z,99.90
2018-08-25T04:04:03.038Z,99.90
2018-08-25T04:06:31.522Z,99.90
2018-08-25T04:08:59.980Z,99.90
2018-08-25T04:11:28.411Z,99.90
2018-08-25T04:13:56.855Z,99.90
2018-08-25T04:16:25.374Z,99.90
2018-08-25T04:18:53.834Z,99.90
2018-08-25T04:21:22.263Z,99.90
2018-08-25T04:23:50.719Z,99.90
2018-08-25T04:26:19.146Z,99.90
2018-08-25T04:28:47.586Z,99.90
2018-08-25T04:31:16.016Z,99.90
2018-08-25T04:33:44.455Z,99.90
2018-08-25T04:36:12.873Z,99.90
2018-08-25T04:38:41.303Z,99.90
2018-08-25T04:41:09.801Z,99.90
2018-08-25T04:43:38.211Z,99.90
2018-08-25T04:46:06.984Z,99.90
2018-08-25T04:48:35.438Z,99.90
2018-08-25T04:51:03.883Z,99.90
2018-08-25T04:53:32.315Z,99.90
2018-08-25T04:56:00.774Z,99.90
2018-08-25T04:58:29.198Z,99.90
2018-08-25T05:00:57.643Z,99.90
2018-08-25T05:03:26.101Z,99.90
2018-08-25T05:05:54.548Z,99.90
2018-08-25T05:08:22.995Z,99.90
2018-08-25T05:10:51.436Z,99.90
2018-08-25T05:13:19.891Z,99.90
2018-08-25T05:15:48.335Z,99.90
2018-08-25T05:18:16.843Z,99.90
2018-08-25T05:20:45.262Z,99.90
2018-08-25T05:23:13.695Z,99.90
2018-08-25T05:25:42.193Z,99.90
2018-08-25T05:28:10.628Z,99.90
2018-08-25T05:30:39.138Z,99.90
2018-08-25T05:33:07.583Z,99.90
2018-08-25T05:35:36.039Z,99.90
2018-08-25T05:38:04.493Z,99.90
2018-08-25T05:40:33.007Z,99.90
2018-08-25T05:43:01.453Z,99.90
2018-08-25T05:45:29.891Z,99.90
2018-08-25T05:47:58.386Z,99.90
2018-08-25T05:50:26.819Z,99.90
2018-08-25T05:52:55.266Z,99.90
2018-08-25T05:55:23.694Z,99.90
2018-08-25T05:57:52.148Z,99.90
2018-08-25T06:00:20.599Z,99.90
2018-08-25T06:02:49.064Z,99.90
2018-08-25T06:05:17.503Z,99.90
2018-08-25T06:07:45.938Z,99.90
2018-08-25T06:10:14.382Z,99.90
2018-08-25T06:12:42.803Z,99.90
2018-08-25T06:15:11.268Z,99.90
2018-08-25T06:17:39.733Z,99.90
2018-08-25T06:20:08.214Z,99.90
2018-08-25T06:22:36.643Z,99.90
2018-08-25T06:25:05.991Z,99.90
2018-08-25T06:27:34.423Z,99.90
2018-08-25T06:30:02.888Z,99.90
2018-08-25T06:32:31.326Z,99.90
2018-08-25T06:34:59.768Z,99.90
2018-08-25T06:37:28.234Z,99.90
2018-08-25T06:39:56.671Z,99.90
2018-08-25T06:42:25.128Z,99.90
2018-08-25T06:44:53.569Z,99.90
2018-08-25T06:47:22.266Z,99.90
2018-08-25T06:49:50.703Z,99.90
2018-08-25T06:52:19.158Z,99.90
2018-08-25T06:54:47.590Z,99.90
2018-08-25T06:57:16.043Z,99.90
2018-08-25T06:59:44.481Z,99.90
2018-08-25T07:02:12.947Z,99.90
2018-08-25T07:04:41.379Z,99.90
2018-08-25T07:07:09.835Z,99.90
2018-08-25T07:09:38.255Z,99.90
2018-08-25T07:12:06.727Z,99.90
2018-08-25T07:14:35.183Z,99.90
2018-08-25T07:17:03.640Z,99.90
2018-08-25T07:19:32.156Z,99.90
2018-08-25T07:22:00.592Z,99.90
2018-08-25T07:24:29.055Z,99.90
2018-08-25T07:26:57.492Z,99.90
2018-08-25T07:29:25.939Z,99.90
2018-08-25T07:31:54.423Z,99.90
2018-08-25T07:34:22.815Z,99.90
2018-08-25T07:36:51.275Z,99.90
2018-08-25T07:39:19.716Z,99.90
2018-08-25T07:41:48.195Z,99.90
2018-08-25T07:44:16.627Z,99.90
2018-08-25T07:46:45.080Z,99.90
2018-08-25T07:49:13.508Z,99.90
2018-08-25T07:51:41.972Z,99.90
2018-08-25T07:54:10.454Z,99.90
2018-08-25T07:56:38.883Z,99.90
2018-08-25T07:59:07.389Z,99.90
2018-08-25T08:01:35.787Z,99.90
2018-08-25T08:04:04.254Z,99.90
2018-08-25T08:06:32.702Z,99.90
2018-08-25T08:09:01.555Z,99.90
2018-08-25T08:11:30.191Z,99.90
2018-08-25T08:13:58.803Z,99.90
2018-08-25T08:16:27.259Z,99.90
2018-08-25T08:18:55.711Z,99.90
2018-08-25T08:21:24.179Z,99.90
2018-08-25T08:23:52.643Z,99.90
2018-08-25T08:26:21.097Z,99.90
2018-08-25T08:28:49.559Z,99.90
2018-08-25T08:31:18.042Z,99.90
2018-08-25T08:33:46.487Z,99.90
2018-08-25T08:36:14.951Z,99.90
2018-08-25T08:38:43.454Z,99.90
2018-08-25T08:41:11.947Z,99.90
2018-08-25T08:43:40.405Z,99.90
2018-08-25T08:46:08.931Z,99.90
2018-08-25T08:48:37.372Z,99.90
2018-08-25T08:51:05.899Z,99.90
2018-08-25T08:53:34.338Z,99.90
2018-08-25T08:56:02.831Z,99.90
2018-08-25T08:58:31.267Z,99.90
2018-08-25T09:00:59.715Z,99.90
2018-08-25T09:03:28.204Z,99.90
2018-08-25T09:05:56.644Z,99.90
2018-08-25T09:08:25.116Z,99.90
2018-08-25T09:10:53.555Z,99.90
2018-08-25T09:13:22.008Z,99.90
2018-08-25T09:15:50.443Z,99.90
2018-08-25T09:18:18.916Z,99.90
2018-08-25T09:20:47.363Z,99.90
2018-08-25T09:23:15.794Z,99.90
2018-08-25T09:25:44.254Z,99.90
2018-08-25T09:28:12.683Z,99.90
2018-08-25T09:30:41.130Z,99.90
2018-08-25T09:33:09.555Z,99.90
2018-08-25T09:35:38.067Z,99.90
2018-08-25T09:38:07.051Z,99.90
2018-08-25T09:40:35.863Z,99.90
2018-08-25T09:43:04.535Z,99.90
2018-08-25T09:45:32.999Z,99.90
2018-08-25T09:48:01.439Z,99.90
2018-08-25T09:50:29.903Z,99.90
2018-08-25T09:52:58.387Z,99.90
2018-08-25T09:55:26.819Z,99.90
2018-08-25T09:57:55.283Z,99.90
2018-08-25T10:00:23.749Z,99.90
2018-08-25T10:02:52.223Z,99.90
2018-08-25T10:05:20.746Z,99.90
2018-08-25T10:07:49.147Z,99.90
2018-08-25T10:10:17.592Z,99.90
2018-08-25T10:12:46.072Z,99.90
2018-08-25T10:15:14.512Z,99.90
2018-08-25T10:17:42.995Z,99.90
2018-08-25T10:20:11.434Z,99.90
2018-08-25T10:22:39.863Z,99.90
2018-08-25T10:25:08.324Z,99.90
2018-08-25T10:27:36.759Z,99.90
2018-08-25T10:30:05.504Z,99.90
2018-08-25T10:32:33.959Z,99.90
2018-08-25T10:35:02.415Z,99.90
2018-08-25T10:37:30.927Z,99.90
2018-08-25T10:39:59.375Z,99.90
2018-08-25T10:42:27.820Z,99.90
2018-08-25T10:44:56.279Z,99.90
2018-08-25T10:47:24.716Z,99.90
2018-08-25T10:49:53.183Z,99.90
2018-08-25T10:52:21.702Z,99.90
2018-08-25T10:54:50.155Z,99.90
2018-08-25T10:57:18.604Z,99.90
2018-08-25T10:59:47.088Z,99.90
2018-08-25T11:02:22.992Z,99.90
2018-08-25T11:04:52.027Z,99.90
2018-08-25T11:07:21.319Z,99.90
2018-08-25T11:09:49.767Z,99.90
2018-08-25T11:12:18.387Z,99.90
2018-08-25T11:14:46.825Z,99.90
2018-08-25T11:17:15.733Z,99.90
2018-08-25T11:19:44.287Z,99.90
2018-08-25T11:22:12.794Z,99.90
2018-08-25T11:24:41.231Z,99.90
2018-08-25T11:27:09.778Z,99.90
2018-08-25T11:29:38.215Z,99.90
2018-08-25T11:32:06.696Z,99.90
2018-08-25T11:34:35.152Z,99.90
2018-08-25T11:37:03.616Z,99.90
2018-08-25T11:39:32.086Z,99.90
2018-08-25T11:42:00.554Z,99.90
2018-08-25T11:44:28.992Z,99.90
2018-08-25T11:46:57.432Z,99.90
2018-08-25T11:49:25.884Z,99.90
2018-08-25T11:51:54.311Z,99.90
2018-08-25T11:54:22.765Z,99.90
2018-08-25T11:56:51.215Z,99.90
2018-08-25T11:59:19.675Z,99.90
2018-08-25T12:01:48.160Z,99.90
2018-08-25T12:04:16.639Z,99.90
2018-08-25T12:06:45.058Z,99.90
2018-08-25T12:09:13.518Z,99.90
2018-08-25T12:11:41.994Z,99.90
2018-08-25T12:14:10.459Z,99.90
2018-08-25T12:16:38.969Z,99.90
2018-08-25T12:19:07.420Z,99.90
2018-08-25T12:21:35.883Z,99.90
2018-08-25T12:24:04.336Z,99.90
2018-08-25T12:26:32.867Z,99.90
2018-08-25T12:29:01.307Z,99.90
2018-08-25T12:31:29.747Z,99.90
2018-08-25T12:33:58.200Z,99.90
2018-08-25T12:36:26.704Z,99.90
2018-08-25T12:38:55.192Z,99.90
2018-08-25T12:41:23.600Z,99.90
2018-08-25T12:43:52.072Z,99.90
2018-08-25T12:46:20.510Z,99.90
2018-08-25T12:48:48.987Z,99.90
2018-08-25T12:51:17.415Z,99.90
2018-08-25T12:53:45.871Z,99.90
2018-08-25T12:56:14.308Z,99.90
2018-08-25T12:58:42.731Z,99.90
2018-08-25T13:01:11.187Z,99.90
2018-08-25T13:03:39.685Z,99.90
2018-08-25T13:06:08.203Z,99.90
2018-08-25T13:08:36.655Z,99.90
2018-08-25T13:11:05.195Z,99.90
2018-08-25T13:13:33.631Z,99.90
2018-08-25T13:16:02.091Z,99.90
2018-08-25T13:18:30.530Z,99.90
2018-08-25T13:20:59.011Z,99.90
2018-08-25T13:23:27.543Z,99.90
2018-08-25T13:25:55.903Z,99.90
2018-08-25T13:28:24.363Z,99.90
2018-08-25T13:30:52.868Z,99.90
2018-08-25T13:33:21.287Z,99.90
2018-08-25T13:35:49.723Z,99.90
2018-08-25T13:38:18.274Z,99.90
2018-08-25T13:40:46.659Z,99.90
2018-08-25T13:43:15.114Z,99.90
2018-08-25T13:45:43.544Z,99.90
2018-08-25T13:48:12.012Z,99.90
2018-08-25T13:50:40.471Z,99.90
2018-08-25T13:53:08.965Z,99.90
2018-08-25T13:55:37.459Z,99.90
2018-08-25T13:58:06.087Z,99.90
2018-08-25T14:00:34.503Z,99.90
2018-08-25T14:03:02.942Z,99.90
2018-08-25T14:05:31.412Z,99.90
2018-08-25T14:07:59.919Z,99.90
2018-08-25T14:10:28.337Z,99.90
2018-08-25T14:12:56.772Z,99.90
2018-08-25T14:15:25.208Z,99.90
2018-08-25T14:17:53.663Z,99.90
2018-08-25T14:20:22.104Z,99.90
2018-08-25T14:22:50.557Z,99.90
2018-08-25T14:25:18.991Z,99.90
2018-08-25T14:27:47.459Z,99.90
2018-08-25T14:30:15.888Z,99.90
2018-08-25T14:32:44.395Z,99.90
2018-08-25T14:35:12.832Z,99.90
2018-08-25T14:37:41.303Z,99.90
2018-08-25T14:40:09.795Z,99.90
2018-08-25T14:42:38.252Z,99.90
2018-08-25T14:45:06.723Z,99.90
2018-08-25T14:47:35.147Z,99.90
2018-08-25T14:50:03.659Z,99.90
2018-08-25T14:52:32.100Z,99.80
2018-08-25T14:55:00.559Z,99.30
2018-08-25T14:57:29.196Z,97.80
2018-08-25T14:59:57.663Z,98.10
2018-08-25T15:02:26.104Z,96.60
2018-08-25T15:04:54.555Z,96.40
2018-08-25T15:07:22.987Z,96.40
2018-08-25T15:09:51.418Z,96.40
2018-08-25T15:12:19.878Z,96.50
2018-08-25T15:14:48.371Z,97.50
2018-08-25T15:17:16.887Z,97.30
2018-08-25T15:19:45.361Z,97.90
2018-08-25T15:22:13.826Z,98.70
2018-08-25T15:24:42.264Z,97.40
2018-08-25T15:27:10.896Z,97.20
2018-08-25T15:29:39.403Z,96.90
2018-08-25T15:32:07.835Z,98.00
2018-08-25T15:34:36.296Z,97.90
2018-08-25T15:37:05.339Z,97.90
2018-08-25T15:39:33.800Z,97.90
2018-08-25T15:42:02.251Z,97.00
2018-08-25T15:44:30.703Z,97.60
2018-08-25T15:46:59.143Z,97.10
2018-08-25T15:49:27.863Z,97.70
2018-08-25T15:51:56.419Z,98.50
2018-08-25T15:54:24.747Z,98.70
2018-08-25T15:56:53.199Z,99.70
2018-08-25T15:59:21.643Z,99.90
2018-08-25T16:01:50.104Z,99.90
2018-08-25T16:04:18.546Z,99.90
2018-08-25T16:06:47.008Z,99.90
2018-08-25T16:09:15.435Z,99.90
2018-08-25T16:11:43.921Z,99.90
2018-08-25T16:14:12.351Z,99.90
2018-08-25T16:16:40.822Z,99.90
2018-08-25T16:19:09.321Z,99.90
2018-08-25T16:21:37.720Z,99.90
2018-08-25T16:24:06.203Z,99.90
2018-08-25T16:26:34.663Z,99.90
2018-08-25T16:29:03.139Z,99.90
2018-08-25T16:31:31.571Z,99.90
2018-08-25T16:34:00.015Z,99.90
2018-08-25T16:36:28.457Z,99.90
2018-08-25T16:38:56.951Z,99.90
2018-08-25T16:41:25.383Z,99.90
2018-08-25T16:43:53.842Z,99.90
2018-08-25T16:46:22.302Z,99.90
2018-08-25T16:48:52.004Z,96.20
2018-08-25T16:51:20.437Z,93.70
2018-08-25T16:53:48.863Z,92.80
2018-08-25T16:56:17.351Z,91.50
2018-08-25T16:58:45.784Z,90.50
2018-08-25T17:01:14.247Z,87.60
2018-08-25T17:03:42.674Z,87.20
2018-08-25T17:06:11.196Z,87.20
2018-08-25T17:08:39.637Z,83.70
2018-08-25T17:11:08.096Z,84.60
2018-08-25T17:13:36.542Z,83.80
2018-08-25T17:16:05.083Z,83.30
2018-08-25T17:18:33.539Z,83.20
2018-08-25T17:21:02.040Z,82.60
2018-08-25T17:23:30.467Z,80.60
2018-08-25T17:25:58.903Z,79.60
2018-08-25T17:28:27.360Z,79.30
2018-08-25T17:30:55.815Z,79.40
2018-08-25T17:33:24.244Z,79.20
2018-08-25T17:35:52.694Z,78.70
2018-08-25T17:38:21.134Z,77.70
2018-08-25T17:40:49.603Z,78.80
2018-08-25T17:43:18.039Z,78.60
2018-08-25T17:45:46.496Z,79.40
2018-08-25T17:48:14.962Z,79.00
2018-08-25T17:50:43.425Z,82.60
2018-08-25T17:53:11.874Z,81.20
2018-08-25T17:55:40.315Z,80.60
2018-08-25T17:58:08.779Z,82.60
2018-08-25T18:00:37.231Z,83.00
2018-08-25T18:03:05.715Z,84.30
2018-08-25T18:05:34.159Z,84.80
2018-08-25T18:08:02.629Z,85.10
2018-08-25T18:10:31.055Z,86.20
2018-08-25T18:12:59.515Z,87.70
2018-08-25T18:15:27.979Z,87.30
2018-08-25T18:17:56.399Z,88.20
2018-08-25T18:20:24.860Z,89.00
2018-08-25T18:22:53.295Z,90.10
2018-08-25T18:25:21.760Z,89.80
2018-08-25T18:27:50.190Z,90.50
2018-08-25T18:30:18.692Z,90.40
2018-08-25T18:32:47.099Z,90.70
2018-08-25T18:35:15.556Z,90.80
2018-08-25T18:37:43.980Z,91.10
2018-08-25T18:40:12.463Z,91.10
2018-08-25T18:42:40.887Z,91.50
2018-08-25T18:45:09.335Z,91.90
2018-08-25T18:47:37.799Z,92.70
2018-08-25T18:50:06.635Z,92.70
2018-08-25T18:52:35.106Z,92.90
2018-08-25T18:55:03.584Z,93.40
2018-08-25T18:57:32.033Z,93.80
2018-08-25T19:00:00.487Z,94.00
2018-08-25T19:02:28.951Z,94.50
2018-08-25T19:04:57.391Z,95.00
2018-08-25T19:07:25.823Z,95.70
2018-08-25T19:09:54.283Z,96.40
2018-08-25T19:12:22.715Z,97.00
2018-08-25T19:14:51.175Z,97.10
2018-08-25T19:17:19.611Z,97.60
2018-08-25T19:19:48.063Z,97.60
2018-08-25T19:22:16.495Z,98.30
2018-08-25T19:24:44.951Z,98.90
2018-08-25T19:27:13.386Z,99.50
2018-08-25T19:29:41.871Z,99.90
2018-08-25T19:32:10.303Z,99.90
2018-08-25T19:34:38.739Z,99.90
2018-08-25T19:37:07.235Z,99.90
2018-08-25T19:39:35.675Z,99.90
2018-08-25T19:42:04.187Z,99.90
2018-08-25T19:44:32.628Z,99.90
2018-08-25T19:47:01.101Z,99.90
2018-08-25T19:49:29.532Z,99.90
2018-08-25T19:51:57.995Z,99.90
2018-08-25T19:54:26.419Z,99.90
2018-08-25T19:56:54.926Z,99.90
2018-08-25T19:59:23.364Z,99.90
2018-08-25T20:01:51.855Z,99.90
2018-08-25T20:04:20.280Z,99.90
2018-08-25T20:06:48.752Z,99.90
2018-08-25T20:09:17.239Z,99.90
2018-08-25T20:11:45.676Z,99.90
2018-08-25T20:14:14.133Z,99.90
2018-08-25T20:16:42.579Z,99.90
2018-08-25T20:19:11.050Z,99.90
2018-08-25T20:21:39.723Z,99.90
2018-08-25T20:24:08.181Z,99.90
2018-08-25T20:26:36.634Z,99.90
2018-08-25T20:29:05.284Z,99.90
2018-08-25T20:31:33.723Z,99.90
2018-08-25T20:34:02.207Z,99.90
2018-08-25T20:36:30.695Z,99.90
2018-08-25T20:38:59.134Z,99.90
2018-08-25T20:41:27.607Z,99.90
2018-08-25T20:43:56.043Z,99.90
2018-08-25T20:46:24.499Z,99.90
2018-08-25T20:48:52.935Z,99.90
2018-08-25T20:51:21.435Z,99.90
2018-08-25T20:53:49.891Z,99.90
2018-08-25T20:56:18.324Z,99.90
2018-08-25T20:58:46.784Z,99.90
2018-08-25T21:01:15.217Z,99.90
2018-08-25T21:03:43.695Z,99.90
2018-08-25T21:06:12.147Z,99.90
2018-08-25T21:08:40.611Z,99.90
2018-08-25T21:11:09.039Z,99.90
2018-08-25T21:13:37.483Z,99.90
2018-08-25T21:16:05.939Z,99.90
2018-08-25T21:18:34.370Z,99.90
2018-08-25T21:21:02.827Z,99.90
2018-08-25T21:23:31.272Z,99.90
2018-08-25T21:25:59.739Z,99.90
2018-08-25T21:28:28.187Z,99.90
2018-08-25T21:30:56.708Z,99.90
2018-08-25T21:33:25.131Z,99.90
2018-08-25T21:35:53.783Z,99.90
2018-08-25T21:38:22.223Z,99.90
2018-08-25T21:40:50.724Z,99.90
2018-08-25T21:43:19.198Z,99.90
2018-08-25T21:45:47.637Z,99.90
2018-08-25T21:48:16.084Z,99.90
2018-08-25T21:50:44.531Z,99.90
2018-08-25T21:53:12.983Z,99.90
2018-08-25T21:55:41.423Z,99.90
2018-08-25T21:58:09.920Z,99.90
2018-08-25T22:00:42.562Z,99.90
2018-08-25T22:03:11.031Z,99.90
2018-08-25T22:05:39.522Z,99.90
2018-08-25T22:08:07.946Z,99.90
2018-08-25T22:10:36.411Z,99.90
2018-08-25T22:13:04.844Z,99.90
2018-08-25T22:15:33.306Z,99.90
2018-08-25T22:18:01.735Z,99.90
2018-08-25T22:20:30.249Z,99.90
2018-08-25T22:22:58.680Z,99.90
2018-08-25T22:25:27.143Z,99.90
2018-08-25T22:27:55.575Z,99.90
2018-08-25T22:30:24.023Z,99.90
2018-08-25T22:32:52.499Z,99.90
2018-08-25T22:35:20.945Z,99.90
2018-08-25T22:37:49.395Z,99.90
2018-08-25T22:40:17.831Z,99.90
2018-08-25T22:42:46.293Z,99.90
2018-08-25T22:45:14.743Z,99.90
2018-08-25T22:47:43.203Z,99.90
2018-08-25T22:50:11.663Z,99.90
2018-08-25T22:52:45.575Z,99.90
2018-08-25T22:55:14.041Z,99.90
2018-08-25T22:57:42.563Z,99.90
2018-08-25T23:00:11.024Z,99.90
2018-08-25T23:02:41.075Z,99.90
2018-08-25T23:05:09.843Z,99.90
2018-08-25T23:07:38.639Z,99.90
2018-08-25T23:10:07.232Z,99.90
2018-08-25T23:12:35.683Z,99.90
2018-08-25T23:15:04.351Z,99.90
2018-08-25T23:17:32.774Z,99.90
2018-08-25T23:20:01.199Z,99.90
2018-08-25T23:22:29.664Z,99.90
2018-08-25T23:24:58.166Z,99.90
2018-08-25T23:27:26.659Z,99.90
2018-08-25T23:29:55.118Z,99.90
2018-08-25T23:32:23.578Z,99.90
2018-08-25T23:34:52.007Z,99.90
2018-08-25T23:37:20.479Z,99.90
2018-08-25T23:39:48.918Z,99.90
2018-08-25T23:42:17.343Z,99.90
2018-08-25T23:44:45.805Z,99.90
2018-08-25T23:47:14.255Z,99.90
2018-08-25T23:49:42.715Z,99.90
2018-08-25T23:52:11.143Z,99.90
2018-08-25T23:54:39.598Z,99.90
2018-08-25T23:57:08.028Z,99.90
2018-08-25T23:59:36.479Z,99.90
